Terminal Aerodrome Forecast
Issued by NWS

Home | Current Version | Previous Version | Text Only | Print | Product List | Glossary On
Versions: 1 2 3 4 5 6 7 8 9 10 11 12 13 14 15
733
FTPA31 PHFO 200054 AAA
TAFHJR
TAF AMD
PHJR 200054Z 2001/2024 05009G18KT P6SM FEW045 SCT150 BKN200
     FM200400 05009KT P6SM FEW030 SCT200
     FM202100 07009KT P6SM SCT040=

USA.gov is the U.S. government's official web portal to all federal, state and local government web resources and services.